createdAt,value
2017-10-12T00:02:06.048Z,98416.97
2017-10-12T00:04:33.554Z,98419.39
2017-10-12T00:07:01.060Z,98416.41
2017-10-12T00:09:28.583Z,98418.56
2017-10-12T00:11:56.096Z,98425.43
2017-10-12T00:14:23.609Z,98433.91
2017-10-12T00:16:51.121Z,98439.36
2017-10-12T00:19:18.643Z,98439.27
2017-10-12T00:21:46.135Z,98432.44
2017-10-12T00:24:13.653Z,98433.89
2017-10-12T00:26:41.179Z,98447.75
2017-10-12T00:29:08.687Z,98445.09
2017-10-12T00:31:36.233Z,98436.47
2017-10-12T00:34:03.742Z,98440.25
2017-10-12T00:36:31.338Z,98439.57
2017-10-12T00:38:58.884Z,98433.64
2017-10-12T00:41:26.414Z,98433.91
2017-10-12T00:43:53.915Z,98432.45
2017-10-12T00:46:21.435Z,98436.73
2017-10-12T00:48:48.980Z,98433.78
2017-10-12T00:51:16.509Z,98433.94
2017-10-12T00:53:44.043Z,98433.92
2017-10-12T00:56:11.570Z,98432.31
2017-10-12T00:58:39.074Z,98434.48
2017-10-12T01:01:06.604Z,98432.98
2017-10-12T01:03:34.122Z,98435.67
2017-10-12T01:06:01.640Z,98437.16
2017-10-12T01:08:29.174Z,98431.50
2017-10-12T01:10:56.698Z,98431.52
2017-10-12T01:13:24.220Z,98433.25
2017-10-12T01:15:51.757Z,98430.00
2017-10-12T01:18:19.280Z,98425.05
2017-10-12T01:20:46.796Z,98435.28
2017-10-12T01:23:14.324Z,98431.92
2017-10-12T01:25:41.862Z,98433.23
2017-10-12T01:28:09.383Z,98431.63
2017-10-12T01:30:36.891Z,98426.49
2017-10-12T01:33:04.420Z,98424.31
2017-10-12T01:35:31.940Z,98432.38
2017-10-12T01:37:59.441Z,98427.38
2017-10-12T01:40:26.962Z,98427.80
2017-10-12T01:42:54.492Z,98425.09
2017-10-12T01:45:22.147Z,98420.53
2017-10-12T01:47:49.671Z,98420.68
2017-10-12T01:50:17.178Z,98422.44
2017-10-12T01:52:44.691Z,98424.16
2017-10-12T01:55:12.208Z,98424.84
2017-10-12T01:57:39.743Z,98419.67
2017-10-12T02:00:07.255Z,98424.91
2017-10-12T02:02:34.783Z,98423.05
2017-10-12T02:05:02.301Z,98424.36
2017-10-12T02:07:29.816Z,98411.04
2017-10-12T02:09:57.337Z,98410.34
2017-10-12T02:12:24.847Z,98414.52
2017-10-12T02:14:52.354Z,98414.96
2017-10-12T02:17:19.857Z,98412.42
2017-10-12T02:19:47.376Z,98409.27
2017-10-12T02:22:14.896Z,98408.08
2017-10-12T02:24:42.409Z,98416.36
2017-10-12T02:27:09.917Z,98417.15
2017-10-12T02:29:37.433Z,98412.97
2017-10-12T02:32:04.961Z,98413.52
2017-10-12T02:34:32.487Z,98409.61
2017-10-12T02:37:00.005Z,98405.31
2017-10-12T02:39:27.515Z,98401.66
2017-10-12T02:41:55.039Z,98397.61
2017-10-12T02:44:22.553Z,98405.59
2017-10-12T02:46:50.063Z,98407.62
2017-10-12T02:49:17.590Z,98403.77
2017-10-12T02:51:45.129Z,98399.73
2017-10-12T02:54:12.647Z,98402.98
2017-10-12T02:56:40.178Z,98407.14
2017-10-12T02:59:07.686Z,98411.98
2017-10-12T03:01:35.196Z,98418.13
2017-10-12T03:04:02.700Z,98413.92
2017-10-12T03:06:30.220Z,98411.88
2017-10-12T03:08:57.721Z,98410.63
2017-10-12T03:11:25.232Z,98411.59
2017-10-12T03:13:52.748Z,98412.54
2017-10-12T03:16:20.251Z,98414.88
2017-10-12T03:18:47.763Z,98419.56
2017-10-12T03:21:15.270Z,98418.11
2017-10-12T03:23:42.780Z,98415.41
2017-10-12T03:26:10.273Z,98413.79
2017-10-12T03:28:37.780Z,98417.34
2017-10-12T03:31:05.283Z,98409.88
2017-10-12T03:33:32.784Z,98404.73
2017-10-12T03:36:01.194Z,98418.36
2017-10-12T03:38:28.715Z,98425.47
2017-10-12T03:40:56.226Z,98423.31
2017-10-12T03:43:23.734Z,98423.70
2017-10-12T03:45:51.250Z,98417.03
2017-10-12T03:48:18.756Z,98412.37
2017-10-12T03:50:46.295Z,98414.28
2017-10-12T03:53:13.804Z,98411.25
2017-10-12T03:55:41.320Z,98414.48
2017-10-12T03:58:08.830Z,98418.66
2017-10-12T04:00:36.351Z,98415.67
2017-10-12T04:03:03.847Z,98408.59
2017-10-12T04:05:31.481Z,98414.47
2017-10-12T04:07:58.997Z,98413.03
2017-10-12T04:10:26.519Z,98409.58
2017-10-12T04:12:54.021Z,98410.01
2017-10-12T04:15:21.514Z,98414.22
2017-10-12T04:17:49.013Z,98425.02
2017-10-12T04:20:16.513Z,98417.44
2017-10-12T04:22:44.008Z,98425.27
2017-10-12T04:25:11.504Z,98423.36
2017-10-12T04:27:39.025Z,98430.66
2017-10-12T04:30:06.523Z,98429.27
2017-10-12T04:32:34.038Z,98432.39
2017-10-12T04:35:01.659Z,98427.11
2017-10-12T04:37:29.162Z,98431.79
2017-10-12T04:39:56.710Z,98429.59
2017-10-12T04:42:24.216Z,98430.66
2017-10-12T04:44:51.750Z,98428.31
2017-10-12T04:47:19.249Z,98434.69
2017-10-12T04:49:46.758Z,98430.73
2017-10-12T04:52:14.307Z,98439.27
2017-10-12T04:54:41.825Z,98439.69
2017-10-12T04:57:09.346Z,98445.51
2017-10-12T04:59:36.858Z,98449.73
2017-10-12T05:02:04.386Z,98440.91
2017-10-12T05:04:31.971Z,98445.74
2017-10-12T05:06:59.531Z,98442.37
2017-10-12T05:09:27.046Z,98441.22
2017-10-12T05:11:54.563Z,98443.03
2017-10-12T05:14:22.055Z,98439.34
2017-10-12T05:16:49.603Z,98433.34
2017-10-12T05:19:18.099Z,98437.97
2017-10-12T05:21:45.611Z,98450.43
2017-10-12T05:24:13.113Z,98452.91
2017-10-12T05:26:40.602Z,98452.22
2017-10-12T05:29:08.106Z,98453.13
2017-10-12T05:31:35.637Z,98453.98
2017-10-12T05:34:03.170Z,98449.66
2017-10-12T05:36:30.668Z,98449.94
2017-10-12T05:38:58.179Z,98459.83
2017-10-12T05:41:25.686Z,98456.66
2017-10-12T05:43:53.178Z,98463.69
2017-10-12T05:46:20.687Z,98472.13
2017-10-12T05:48:48.200Z,98475.64
2017-10-12T05:51:15.703Z,98486.45
2017-10-12T05:53:43.216Z,98482.02
2017-10-12T05:56:10.737Z,98480.12
2017-10-12T05:58:38.301Z,98482.98
2017-10-12T06:01:05.811Z,98486.33
2017-10-12T06:03:33.310Z,98481.34
2017-10-12T06:06:00.812Z,98496.17
2017-10-12T06:08:28.319Z,98497.37
2017-10-12T06:10:55.815Z,98501.67
2017-10-12T06:13:23.320Z,98508.17
2017-10-12T06:15:50.867Z,98511.55
2017-10-12T06:18:18.430Z,98504.14
2017-10-12T06:20:45.939Z,98504.95
2017-10-12T06:23:13.432Z,98499.03
2017-10-12T06:25:40.930Z,98510.62
2017-10-12T06:28:08.444Z,98521.50
2017-10-12T06:30:35.966Z,98526.48
2017-10-12T06:33:03.500Z,98527.64
2017-10-12T06:35:31.012Z,98538.37
2017-10-12T06:37:58.520Z,98544.33
2017-10-12T06:40:26.029Z,98546.45
2017-10-12T06:42:53.544Z,98549.39
2017-10-12T06:45:21.047Z,98554.77
2017-10-12T06:47:48.560Z,98552.99
2017-10-12T06:50:16.078Z,98557.31
2017-10-12T06:52:43.769Z,98551.61
2017-10-12T06:55:11.293Z,98557.31
2017-10-12T06:57:38.805Z,98575.78
2017-10-12T07:00:06.356Z,98578.86
2017-10-12T07:02:33.870Z,98581.84
2017-10-12T07:05:01.404Z,98581.63
2017-10-12T07:07:28.907Z,98597.65
2017-10-12T07:09:56.423Z,98592.63
2017-10-12T07:12:23.949Z,98608.56
2017-10-12T07:14:51.464Z,98610.20
2017-10-12T07:17:18.988Z,98605.32
2017-10-12T07:19:46.496Z,98613.16
2017-10-12T07:22:14.016Z,98608.13
2017-10-12T07:24:41.543Z,98621.72
2017-10-12T07:27:09.054Z,98629.65
2017-10-12T07:29:36.555Z,98632.70
2017-10-12T07:32:04.088Z,98636.97
2017-10-12T07:34:31.595Z,98645.94
2017-10-12T07:36:59.119Z,98659.95
2017-10-12T07:39:26.640Z,98663.48
2017-10-12T07:41:54.158Z,98675.83
2017-10-12T07:44:21.661Z,98663.88
2017-10-12T07:46:49.164Z,98676.44
2017-10-12T07:49:16.682Z,98677.77
2017-10-12T07:51:44.196Z,98672.11
2017-10-12T07:54:11.738Z,98688.59
2017-10-12T07:56:39.345Z,98695.55
2017-10-12T07:59:06.866Z,98696.00
2017-10-12T08:01:34.396Z,98707.59
2017-10-12T08:04:01.907Z,98709.86
2017-10-12T08:06:29.425Z,98717.01
2017-10-12T08:08:56.931Z,98710.70
2017-10-12T08:11:24.442Z,98718.89
2017-10-12T08:13:51.952Z,98720.48
2017-10-12T08:16:19.463Z,98729.52
2017-10-12T08:18:46.987Z,98729.40
2017-10-12T08:21:14.498Z,98736.73
2017-10-12T08:23:42.007Z,98743.34
2017-10-12T08:26:09.541Z,98742.56
2017-10-12T08:28:37.066Z,98744.40
2017-10-12T08:31:04.583Z,98747.95
2017-10-12T08:33:32.103Z,98743.82
2017-10-12T08:35:59.607Z,98742.56
2017-10-12T08:38:27.159Z,98749.86
2017-10-12T08:40:54.680Z,98753.13
2017-10-12T08:43:22.195Z,98752.98
2017-10-12T08:45:49.715Z,98766.25
2017-10-12T08:48:17.234Z,98774.75
2017-10-12T08:50:44.749Z,98786.76
2017-10-12T08:53:12.298Z,98788.01
2017-10-12T08:55:39.832Z,98790.16
2017-10-12T08:58:07.352Z,98788.14
2017-10-12T09:00:34.865Z,98782.94
2017-10-12T09:03:02.367Z,98779.17
2017-10-12T09:05:29.915Z,98783.05
2017-10-12T09:07:57.423Z,98794.92
2017-10-12T09:10:24.948Z,98789.80
2017-10-12T09:12:52.479Z,98787.17
2017-10-12T09:15:19.980Z,98782.98
2017-10-12T09:17:47.508Z,98791.73
2017-10-12T09:20:15.050Z,98796.75
2017-10-12T09:22:42.602Z,98796.72
2017-10-12T09:25:10.121Z,98806.70
2017-10-12T09:27:37.654Z,98805.64
2017-10-12T09:30:05.168Z,98808.69
2017-10-12T09:32:32.667Z,98809.70
2017-10-12T09:35:00.171Z,98812.95
2017-10-12T09:37:27.684Z,98813.69
2017-10-12T09:39:55.219Z,98817.37
2017-10-12T09:42:22.756Z,98821.27
2017-10-12T09:44:50.293Z,98832.09
2017-10-12T09:47:17.810Z,98827.61
2017-10-12T09:49:45.345Z,98835.80
2017-10-12T09:52:12.862Z,98827.72
2017-10-12T09:54:40.404Z,98824.08
2017-10-12T09:57:07.925Z,98828.53
2017-10-12T09:59:35.433Z,98831.77
2017-10-12T10:02:02.981Z,98832.66
2017-10-12T10:04:30.514Z,98837.12
2017-10-12T10:06:58.044Z,98848.34
2017-10-12T10:09:25.556Z,98849.98
2017-10-12T10:11:53.064Z,98850.22
2017-10-12T10:14:20.595Z,98850.73
2017-10-12T10:16:48.298Z,98858.17
2017-10-12T10:19:15.811Z,98846.24
2017-10-12T10:21:43.332Z,98861.41
2017-10-12T10:24:10.839Z,98858.45
2017-10-12T10:26:38.350Z,98850.98
2017-10-12T10:29:05.867Z,98857.06
2017-10-12T10:31:33.362Z,98860.33
2017-10-12T10:34:00.924Z,98871.03
2017-10-12T10:36:28.438Z,98871.98
2017-10-12T10:38:55.954Z,98858.42
2017-10-12T10:41:23.452Z,98868.66
2017-10-12T10:43:50.967Z,98874.31
2017-10-12T10:46:18.466Z,98867.28
2017-10-12T10:48:45.975Z,98869.48
2017-10-12T10:51:13.508Z,98868.20
2017-10-12T10:53:41.009Z,98877.55
2017-10-12T10:56:08.528Z,98877.88
2017-10-12T10:58:36.036Z,98883.30
2017-10-12T11:01:03.558Z,98880.67
2017-10-12T11:03:31.067Z,98881.31
2017-10-12T11:05:58.586Z,98880.27
2017-10-12T11:08:26.112Z,98874.28
2017-10-12T11:10:53.617Z,98878.94
2017-10-12T11:13:21.149Z,98887.48
2017-10-12T11:15:48.669Z,98882.83
2017-10-12T11:18:16.204Z,98895.23
2017-10-12T11:20:43.727Z,98891.22
2017-10-12T11:23:11.256Z,98895.42
2017-10-12T11:25:38.759Z,98891.80
2017-10-12T11:28:06.291Z,98897.70
2017-10-12T11:30:33.828Z,98899.06
2017-10-12T11:33:01.328Z,98891.13
2017-10-12T11:35:28.860Z,98895.62
2017-10-12T11:37:56.373Z,98906.38
2017-10-12T11:40:23.895Z,98888.48
2017-10-12T11:42:51.450Z,98888.46
2017-10-12T11:45:18.966Z,98894.50
2017-10-12T11:47:46.484Z,98891.14
2017-10-12T11:50:13.984Z,98900.05
2017-10-12T11:52:41.492Z,98897.34
2017-10-12T11:55:09.008Z,98899.45
2017-10-12T11:57:36.588Z,98905.08
2017-10-12T12:00:04.100Z,98900.36
2017-10-12T12:02:31.632Z,98903.08
2017-10-12T12:04:59.164Z,98907.10
2017-10-12T12:07:26.714Z,98906.15
2017-10-12T12:09:54.232Z,98907.61
2017-10-12T12:12:21.748Z,98910.42
2017-10-12T12:14:49.268Z,98904.30
2017-10-12T12:17:16.783Z,98909.22
2017-10-12T12:19:44.295Z,98904.07
2017-10-12T12:22:11.843Z,98912.00
2017-10-12T12:24:39.345Z,98908.63
2017-10-12T12:27:06.849Z,98904.88
2017-10-12T12:29:34.356Z,98904.53
2017-10-12T12:32:01.860Z,98904.31
2017-10-12T12:34:29.378Z,98908.94
2017-10-12T12:36:56.907Z,98904.80
2017-10-12T12:39:24.464Z,98902.73
2017-10-12T12:41:52.003Z,98895.98
2017-10-12T12:44:19.535Z,98893.57
2017-10-12T12:46:47.090Z,98899.08
2017-10-12T12:49:14.643Z,98894.86
2017-10-12T12:51:42.277Z,98901.36
2017-10-12T12:54:09.789Z,98905.36
2017-10-12T12:56:37.309Z,98890.75
2017-10-12T12:59:04.833Z,98896.86
2017-10-12T13:01:32.363Z,98894.98
2017-10-12T13:03:59.884Z,98902.38
2017-10-12T13:06:27.403Z,98897.34
2017-10-12T13:08:55.015Z,98896.33
2017-10-12T13:11:22.534Z,98890.31
2017-10-12T13:13:50.051Z,98902.02
2017-10-12T13:16:17.571Z,98890.85
2017-10-12T13:18:45.088Z,98897.86
2017-10-12T13:21:12.606Z,98897.89
2017-10-12T13:23:40.141Z,98898.58
2017-10-12T13:26:07.659Z,98898.81
2017-10-12T13:28:35.170Z,98897.75
2017-10-12T13:31:02.680Z,98895.62
2017-10-12T13:33:30.205Z,98887.90
2017-10-12T13:35:57.803Z,98897.70
2017-10-12T13:38:25.315Z,98894.63
2017-10-12T13:40:52.867Z,98892.86
2017-10-12T13:43:20.390Z,98896.45
2017-10-12T13:45:47.901Z,98891.56
2017-10-12T13:48:15.444Z,98890.14
2017-10-12T13:50:42.987Z,98888.42
2017-10-12T13:53:10.497Z,98885.85
2017-10-12T13:55:38.022Z,98890.84
2017-10-12T13:58:05.580Z,98889.16
2017-10-12T14:00:33.084Z,98878.38
2017-10-12T14:03:00.605Z,98889.30
2017-10-12T14:05:28.115Z,98889.63
2017-10-12T14:07:55.622Z,98892.27
2017-10-12T14:10:23.222Z,98887.39
2017-10-12T14:12:50.730Z,98891.30
2017-10-12T14:15:18.272Z,98899.62
2017-10-12T14:17:45.811Z,98889.13
2017-10-12T14:20:13.327Z,98893.52
2017-10-12T14:22:40.854Z,98890.39
2017-10-12T14:25:08.377Z,98893.13
2017-10-12T14:27:35.891Z,98883.49
2017-10-12T14:30:03.395Z,98889.28
2017-10-12T14:32:30.898Z,98881.59
2017-10-12T14:34:58.394Z,98884.98
2017-10-12T14:37:25.903Z,98885.16
2017-10-12T14:39:53.406Z,98886.08
2017-10-12T14:42:20.964Z,98881.73
2017-10-12T14:44:48.502Z,98883.77
2017-10-12T14:47:16.020Z,98882.36
2017-10-12T14:49:43.529Z,98882.33
2017-10-12T14:52:11.047Z,98876.69
2017-10-12T14:54:38.567Z,98884.76
2017-10-12T14:57:06.086Z,98887.41
2017-10-12T14:59:33.641Z,98878.55
2017-10-12T15:02:01.166Z,98887.17
2017-10-12T15:04:28.694Z,98883.72
2017-10-12T15:06:56.245Z,98885.02
2017-10-12T15:09:23.767Z,98886.89
2017-10-12T15:11:51.280Z,98890.55
2017-10-12T15:14:18.817Z,98894.84
2017-10-12T15:16:46.336Z,98898.63
2017-10-12T15:19:13.892Z,98895.56
2017-10-12T15:21:41.403Z,98896.63
2017-10-12T15:24:08.924Z,98892.78
2017-10-12T15:26:36.448Z,98887.00
2017-10-12T15:29:03.998Z,98889.02
2017-10-12T15:31:31.515Z,98896.13
2017-10-12T15:33:59.038Z,98892.70
2017-10-12T15:36:27.526Z,98891.58
2017-10-12T15:38:55.031Z,98892.66
2017-10-12T15:41:22.551Z,98897.65
2017-10-12T15:43:50.062Z,98899.11
2017-10-12T15:46:17.602Z,98900.08
2017-10-12T15:48:45.124Z,98907.71
2017-10-12T15:51:12.661Z,98910.03
2017-10-12T15:53:40.186Z,98909.56
2017-10-12T15:56:07.717Z,98899.67
2017-10-12T15:58:35.275Z,98904.73
2017-10-12T16:01:02.794Z,98901.27
2017-10-12T16:03:30.332Z,98896.13
2017-10-12T16:05:58.720Z,98904.95
2017-10-12T16:08:26.253Z,98899.38
2017-10-12T16:10:53.793Z,98902.77
2017-10-12T16:13:21.360Z,98903.91
2017-10-12T16:15:48.895Z,98909.86
2017-10-12T16:18:17.256Z,98909.40
2017-10-12T16:20:44.777Z,98912.32
2017-10-12T16:23:12.345Z,98914.18
2017-10-12T16:25:39.849Z,98918.06
2017-10-12T16:28:07.384Z,98927.13
2017-10-12T16:30:35.765Z,98928.70
2017-10-12T16:35:30.844Z,98930.83
2017-10-12T16:37:58.363Z,98934.86
2017-10-12T16:40:25.894Z,98934.31
2017-10-12T16:42:53.442Z,98931.88
2017-10-12T16:45:20.985Z,98936.55
2017-10-12T16:47:48.572Z,98925.89
2017-10-12T16:50:16.111Z,98930.12
2017-10-12T16:52:43.793Z,98942.02
2017-10-12T16:55:11.300Z,98942.22
2017-10-12T16:57:38.829Z,98945.34
2017-10-12T17:00:06.379Z,98949.97
2017-10-12T17:02:33.912Z,98954.58
2017-10-12T17:05:01.480Z,98956.89
2017-10-12T17:07:29.050Z,98960.92
2017-10-12T17:09:56.589Z,98964.90
2017-10-12T17:12:24.095Z,98966.56
2017-10-12T17:14:51.718Z,98961.41
2017-10-12T17:17:19.271Z,98970.28
2017-10-12T17:19:46.804Z,98971.13
2017-10-12T17:22:14.336Z,98977.42
2017-10-12T17:24:41.942Z,98973.03
2017-10-12T17:27:09.459Z,98980.58
2017-10-12T17:29:37.018Z,98977.55
2017-10-12T17:32:04.557Z,98978.61
2017-10-12T17:34:32.106Z,98988.29
2017-10-12T17:36:59.643Z,98984.95
2017-10-12T17:39:27.173Z,98986.58
2017-10-12T17:41:54.707Z,98988.89
2017-10-12T17:44:22.225Z,98998.54
2017-10-12T17:46:49.774Z,98993.08
2017-10-12T17:49:17.293Z,98995.83
2017-10-12T17:51:44.828Z,98995.94
2017-10-12T17:54:40.407Z,99000.80
2017-10-12T17:56:39.954Z,98999.73
2017-10-12T17:59:07.533Z,99009.38
2017-10-12T18:01:35.180Z,99008.01
2017-10-12T18:04:02.684Z,99013.00
2017-10-12T18:06:30.189Z,99007.52
2017-10-12T18:08:57.723Z,99020.14
2017-10-12T18:11:25.428Z,99017.25
2017-10-12T18:13:52.968Z,99015.75
2017-10-12T18:16:20.498Z,99021.73
2017-10-12T18:18:48.045Z,99029.75
2017-10-12T18:21:15.563Z,99031.88
2017-10-12T18:23:43.079Z,99031.02
2017-10-12T18:26:10.609Z,99036.47
2017-10-12T18:28:38.132Z,99033.70
2017-10-12T18:31:05.653Z,99034.32
2017-10-12T18:33:33.176Z,99040.95
2017-10-12T18:36:00.748Z,99038.26
2017-10-12T18:38:28.296Z,99048.70
2017-10-12T18:40:55.866Z,99046.19
2017-10-12T18:43:23.530Z,99040.16
2017-10-12T18:45:51.394Z,99042.89
2017-10-12T18:48:19.221Z,99041.27
2017-10-12T18:50:47.131Z,99047.32
2017-10-12T18:53:15.255Z,99043.51
2017-10-12T18:55:43.165Z,99048.06
2017-10-12T18:58:11.128Z,99049.73
2017-10-12T19:00:39.205Z,99052.23
2017-10-12T19:03:07.175Z,99055.03
2017-10-12T19:05:35.246Z,99050.45
2017-10-12T19:08:03.258Z,99050.38
2017-10-12T19:10:31.502Z,99061.64
2017-10-12T19:12:59.559Z,99059.46
2017-10-12T19:15:27.629Z,99059.19
2017-10-12T19:17:55.704Z,99054.89
2017-10-12T19:22:51.530Z,99057.91
2017-10-12T19:25:19.503Z,99064.42
2017-10-12T19:27:47.564Z,99053.33
2017-10-12T19:30:15.624Z,99060.91
2017-10-12T19:32:43.614Z,99056.34
2017-10-12T19:35:11.480Z,99052.70
2017-10-12T19:37:39.552Z,99056.87
2017-10-12T19:40:07.519Z,99055.41
2017-10-12T19:42:35.702Z,99052.95
2017-10-12T19:45:03.863Z,99060.09
2017-10-12T19:47:32.037Z,99063.61
2017-10-12T19:49:59.907Z,99061.72
2017-10-12T19:52:27.563Z,99064.46
2017-10-12T19:54:55.136Z,99064.33
2017-10-12T19:57:22.659Z,99062.29
2017-10-12T19:59:50.196Z,99066.88
2017-10-12T20:02:17.755Z,99076.09
2017-10-12T20:04:45.301Z,99064.61
2017-10-12T20:07:12.970Z,99072.02
2017-10-12T20:09:40.517Z,99070.53
2017-10-12T20:12:08.027Z,99078.78
2017-10-12T20:14:35.559Z,99072.84
2017-10-12T20:17:03.084Z,99075.80
2017-10-12T20:19:30.612Z,99074.98
2017-10-12T20:21:58.221Z,99079.59
2017-10-12T20:24:25.770Z,99075.83
2017-10-12T20:26:53.330Z,99080.27
2017-10-12T20:29:35.812Z,99071.47
2017-10-12T20:31:48.455Z,99085.42
2017-10-12T20:34:16.020Z,99089.73
2017-10-12T20:36:43.559Z,99092.99
2017-10-12T20:39:11.095Z,99095.80
2017-10-12T20:41:38.612Z,99097.41
2017-10-12T20:44:06.156Z,99105.24
2017-10-12T20:46:33.671Z,99101.43
2017-10-12T20:49:01.239Z,99106.53
2017-10-12T20:51:28.793Z,99107.06
2017-10-12T20:53:56.313Z,99113.15
2017-10-12T20:56:23.940Z,99105.09
2017-10-12T20:58:51.449Z,99111.02
2017-10-12T21:01:18.968Z,99110.44
2017-10-12T21:03:46.482Z,99113.50
2017-10-12T21:06:13.994Z,99113.94
2017-10-12T21:08:41.549Z,99118.11
2017-10-12T21:11:09.094Z,99109.55
2017-10-12T21:13:36.612Z,99115.38
2017-10-12T21:16:04.155Z,99123.25
2017-10-12T21:18:31.659Z,99121.47
2017-10-12T21:20:59.158Z,99121.91
2017-10-12T21:23:26.708Z,99119.55
2017-10-12T21:25:54.233Z,99112.57
2017-10-12T21:28:21.741Z,99118.84
2017-10-12T21:30:49.243Z,99115.59
2017-10-12T21:33:16.774Z,99122.47
2017-10-12T21:35:44.278Z,99122.32
2017-10-12T21:38:11.931Z,99123.07
2017-10-12T21:40:39.443Z,99129.30
2017-10-12T21:43:06.951Z,99126.30
2017-10-12T21:45:34.498Z,99124.77
2017-10-12T21:48:02.026Z,99132.83
2017-10-12T21:50:29.568Z,99135.02
2017-10-12T21:52:57.099Z,99129.28
2017-10-12T21:55:24.594Z,99128.95
2017-10-12T21:57:52.095Z,99129.92
2017-10-12T22:00:19.621Z,99132.70
2017-10-12T22:02:47.141Z,99134.44
2017-10-12T22:05:14.640Z,99135.61
2017-10-12T22:07:42.157Z,99128.91
2017-10-12T22:10:09.733Z,99129.31
2017-10-12T22:12:37.290Z,99134.59
2017-10-12T22:15:04.850Z,99131.84
2017-10-12T22:17:32.356Z,99139.03
2017-10-12T22:19:59.866Z,99146.02
2017-10-12T22:22:27.371Z,99149.09
2017-10-12T22:24:54.875Z,99144.63
2017-10-12T22:27:22.399Z,99143.55
2017-10-12T22:29:49.911Z,99142.99
2017-10-12T22:32:17.466Z,99145.66
2017-10-12T22:34:45.012Z,99137.36
2017-10-12T22:37:12.528Z,99146.51
2017-10-12T22:39:40.035Z,99145.10
2017-10-12T22:42:07.563Z,99148.66
2017-10-12T22:44:35.068Z,99147.95
2017-10-12T22:47:02.563Z,99150.77
2017-10-12T22:49:30.071Z,99151.67
2017-10-12T22:51:57.627Z,99146.73
2017-10-12T22:54:25.166Z,99150.81
2017-10-12T22:56:52.684Z,99149.02
2017-10-12T22:59:20.195Z,99143.26
2017-10-12T23:01:47.744Z,99137.39
2017-10-12T23:04:15.256Z,99145.30
2017-10-12T23:06:42.758Z,99141.58
2017-10-12T23:09:10.275Z,99146.41
2017-10-12T23:11:37.782Z,99142.52
2017-10-12T23:14:05.278Z,99143.28
2017-10-12T23:16:32.776Z,99141.94
2017-10-12T23:19:00.288Z,99141.78
2017-10-12T23:21:27.792Z,99147.30
2017-10-12T23:23:55.347Z,99149.78
2017-10-12T23:26:22.882Z,99152.69
2017-10-12T23:28:50.404Z,99154.41
2017-10-12T23:31:23.245Z,99153.22
2017-10-12T23:33:57.523Z,99156.05
2017-10-12T23:36:25.045Z,99151.71
2017-10-12T23:38:52.564Z,99155.26
2017-10-12T23:41:20.076Z,99159.52
2017-10-12T23:43:47.684Z,99159.23
2017-10-12T23:46:23.607Z,99157.67
2017-10-12T23:52:05.686Z,99160.16
2017-10-12T23:54:33.228Z,99166.83
2017-10-12T23:57:00.732Z,99162.83
2017-10-12T23:59:29.387Z,99163.13
